Time;durP1;ratioP1;P1;durP2;ratioP2;P2;SDS_P1;SDS_P2;PMS_P1;PMS_P2;Temp;Humidity;BMP_temperature;BMP_pressure;BME280_temperature;BME280_humidity;BME280_pressure;Samples;Min_cycle;Max_cycle;Signal;HPM_P1;HPM_P2
2022/04/30 00:01:02;;;;;;;;;;;23.80;35.00;;;;;;5107180;28;20369;-65
2022/04/30 00:03:30;;;;;;;;;;;23.80;35.00;;;;;;5107568;28;19930;-65
2022/04/30 00:05:57;;;;;;;;;;;23.80;35.10;;;;;;5102533;28;19927;-64
2022/04/30 00:08:25;;;;;;;;;;;23.70;35.00;;;;;;5107436;28;19928;-65
2022/04/30 00:10:53;;;;;;;;;;;23.70;35.10;;;;;;5107264;28;20402;-64
2022/04/30 00:13:21;;;;;;;;;;;23.80;35.10;;;;;;5106414;28;19923;-64
2022/04/30 00:15:48;;;;;;;;;;;23.70;35.10;;;;;;5107464;28;19924;-65
2022/04/30 00:18:15;;;;;;;;;;;23.80;35.10;;;;;;5107428;28;19984;-64
2022/04/30 00:20:48;;;;;;;;;;;23.80;35.10;;;;;;5107043;28;19923;-64
2022/04/30 00:23:21;;;;;;;;;;;23.80;35.00;;;;;;5107182;28;20432;-64
2022/04/30 00:25:49;;;;;;;;;;;23.80;35.00;;;;;;5106807;28;19932;-65
2022/04/30 00:28:18;;;;;;;;;;;23.80;35.00;;;;;;5089340;28;19986;-65
2022/04/30 00:30:45;;;;;;;;;;;23.80;35.20;;;;;;5107262;28;19932;-64
2022/04/30 00:33:12;;;;;;;;;;;23.80;35.10;;;;;;5106999;28;19970;-64
2022/04/30 00:35:40;;;;;;;;;;;23.80;35.00;;;;;;5107357;28;20198;-64
2022/04/30 00:38:07;;;;;;;;;;;23.80;35.00;;;;;;5101415;28;19969;-64
2022/04/30 00:40:34;;;;;;;;;;;23.80;35.00;;;;;;5107682;28;19932;-65
2022/04/30 00:43:01;;;;;;;;;;;23.80;35.00;;;;;;5106702;28;20368;-64
2022/04/30 00:45:28;;;;;;;;;;;23.80;35.00;;;;;;5106950;28;19928;-64
2022/04/30 00:47:55;;;;;;;;;;;23.80;35.00;;;;;;5106778;28;19924;-65
2022/04/30 00:50:26;;;;;;;;;;;23.80;35.00;;;;;;5106697;28;19927;-64
2022/04/30 00:52:55;;;;;;;;;;;23.80;35.00;;;;;;5106801;28;20201;-65
2022/04/30 00:55:25;;;;;;;;;;;23.80;35.00;;;;;;5105535;28;20152;-64
2022/04/30 00:57:54;;;;;;;;;;;23.80;35.00;;;;;;5109741;28;19970;-64
2022/04/30 01:00:21;;;;;;;;;;;23.80;35.10;;;;;;5109280;28;20371;-65
2022/04/30 01:02:48;;;;;;;;;;;23.80;35.10;;;;;;5109491;28;20031;-65
2022/04/30 01:05:15;;;;;;;;;;;23.70;35.00;;;;;;5109389;28;19977;-64
2022/04/30 01:07:42;;;;;;;;;;;23.70;35.10;;;;;;5108266;28;19923;-64
2022/04/30 01:10:09;;;;;;;;;;;23.80;35.20;;;;;;5106503;28;19969;-64
2022/04/30 01:12:36;;;;;;;;;;;23.70;35.10;;;;;;5109461;28;19927;-64
2022/04/30 01:15:05;;;;;;;;;;;23.80;35.20;;;;;;5108983;28;19932;-64
2022/04/30 01:17:32;;;;;;;;;;;23.70;35.10;;;;;;5109094;28;20371;-64
2022/04/30 01:19:59;;;;;;;;;;;23.70;35.20;;;;;;5109106;28;19992;-65
2022/04/30 01:22:28;;;;;;;;;;;23.70;35.30;;;;;;5109313;28;20344;-64
2022/04/30 01:24:56;;;;;;;;;;;23.70;35.30;;;;;;5108803;28;19927;-64
2022/04/30 01:27:27;;;;;;;;;;;23.60;35.20;;;;;;5109208;28;19924;-65
2022/04/30 01:29:59;;;;;;;;;;;23.60;35.30;;;;;;5108995;28;19924;-64
2022/04/30 01:38:07;;;;;;;;;;;23.60;35.40;;;;;;5108705;28;19978;-64
2022/04/30 01:40:34;;;;;;;;;;;23.60;35.50;;;;;;5104214;28;19971;-64
2022/04/30 01:43:02;;;;;;;;;;;23.50;35.40;;;;;;5108941;28;19923;-65
2022/04/30 01:45:29;;;;;;;;;;;23.60;35.50;;;;;;5108569;28;20000;-64
2022/04/30 01:47:58;;;;;;;;;;;23.60;35.50;;;;;;5108752;28;19931;-64
2022/04/30 01:50:26;;;;;;;;;;;23.60;35.40;;;;;;5108627;28;20330;-64
2022/04/30 01:52:53;;;;;;;;;;;23.60;35.40;;;;;;5109257;28;19924;-64
2022/04/30 01:55:20;;;;;;;;;;;23.60;35.40;;;;;;5108064;28;20007;-64
2022/04/30 01:57:47;;;;;;;;;;;23.60;35.40;;;;;;5108657;28;19978;-64
2022/04/30 02:00:14;;;;;;;;;;;23.60;35.30;;;;;;5108224;28;20023;-65
2022/04/30 02:02:42;;;;;;;;;;;23.60;35.30;;;;;;5108563;28;20347;-65
2022/04/30 02:05:12;;;;;;;;;;;23.60;35.30;;;;;;5108571;28;19934;-65
2022/04/30 02:07:42;;;;;;;;;;;23.60;35.30;;;;;;5090207;28;19924;-64
2022/04/30 02:10:10;;;;;;;;;;;23.60;35.30;;;;;;5107927;28;20328;-64
2022/04/30 02:12:38;;;;;;;;;;;23.60;35.30;;;;;;5103479;28;20418;-64
2022/04/30 02:15:05;;;;;;;;;;;23.60;35.30;;;;;;5108262;28;20291;-64
2022/04/30 02:17:35;;;;;;;;;;;23.60;35.30;;;;;;5108188;28;19924;-64
2022/04/30 02:20:18;;;;;;;;;;;23.60;35.30;;;;;;5108153;28;19923;-65
2022/04/30 02:22:45;;;;;;;;;;;23.60;35.30;;;;;;5108297;28;19924;-64
2022/04/30 02:25:13;;;;;;;;;;;23.60;35.40;;;;;;5107385;28;20368;-65
2022/04/30 02:27:42;;;;;;;;;;;23.60;35.40;;;;;;5107665;28;20033;-65
2022/04/30 02:30:14;;;;;;;;;;;23.60;35.40;;;;;;5107417;28;19924;-65
2022/04/30 02:32:42;;;;;;;;;;;23.60;35.40;;;;;;5089395;28;20372;-65
2022/04/30 02:35:09;;;;;;;;;;;23.60;35.40;;;;;;5107320;28;20580;-65
2022/04/30 02:37:36;;;;;;;;;;;23.50;35.40;;;;;;5108041;28;19955;-64
2022/04/30 02:40:04;;;;;;;;;;;23.60;35.60;;;;;;5107635;28;19956;-64
2022/04/30 02:42:31;;;;;;;;;;;23.50;35.40;;;;;;5106623;28;19924;-65
2022/04/30 02:44:58;;;;;;;;;;;23.50;35.40;;;;;;5104207;28;19966;-64
2022/04/30 02:47:24;;;;;;;;;;;23.50;35.50;;;;;;5107830;28;19927;-64
2022/04/30 02:49:53;;;;;;;;;;;23.50;35.50;;;;;;5107468;28;20607;-64
2022/04/30 02:52:20;;;;;;;;;;;23.60;35.50;;;;;;5107559;28;20382;-64
2022/04/30 02:54:48;;;;;;;;;;;23.50;35.50;;;;;;5107100;28;19924;-64
2022/04/30 02:57:15;;;;;;;;;;;23.50;35.60;;;;;;5106863;28;19977;-64
2022/04/30 02:59:54;;;;;;;;;;;23.50;35.60;;;;;;5107184;28;20371;-65
2022/04/30 03:02:22;;;;;;;;;;;23.40;35.70;;;;;;5106950;28;19923;-65
2022/04/30 03:04:53;;;;;;;;;;;23.40;35.70;;;;;;5107077;28;20143;-65
2022/04/30 03:07:22;;;;;;;;;;;23.40;35.70;;;;;;5106709;28;19963;-65
2022/04/30 03:09:50;;;;;;;;;;;23.40;35.70;;;;;;5106839;28;19946;-64
2022/04/30 03:12:17;;;;;;;;;;;23.40;35.80;;;;;;5107117;28;19927;-65
2022/04/30 03:14:44;;;;;;;;;;;23.40;35.80;;;;;;5102231;28;20264;-64
2022/04/30 03:22:47;;;;;;;;;;;23.40;35.80;;;;;;5107289;28;19994;-64
2022/04/30 03:25:16;;;;;;;;;;;23.40;35.70;;;;;;5106212;28;19924;-64
2022/04/30 03:27:43;;;;;;;;;;;23.40;35.70;;;;;;5106694;28;19928;-64
2022/04/30 03:30:11;;;;;;;;;;;23.50;35.70;;;;;;5106676;28;19928;-64
2022/04/30 03:32:42;;;;;;;;;;;23.40;35.60;;;;;;5106986;28;20322;-64
2022/04/30 03:35:09;;;;;;;;;;;23.50;35.60;;;;;;5088771;28;19973;-64
2022/04/30 03:37:36;;;;;;;;;;;23.40;35.60;;;;;;5106650;28;19932;-65
2022/04/30 03:40:04;;;;;;;;;;;23.50;35.60;;;;;;5106226;28;20452;-64
2022/04/30 03:42:33;;;;;;;;;;;23.50;35.60;;;;;;5106547;28;19931;-67
2022/04/30 03:45:04;;;;;;;;;;;23.40;35.60;;;;;;5106333;28;19963;-64
2022/04/30 03:47:31;;;;;;;;;;;23.40;35.60;;;;;;5101501;28;19928;-65
2022/04/30 03:49:59;;;;;;;;;;;23.50;35.60;;;;;;5106235;28;19976;-64
2022/04/30 03:52:26;;;;;;;;;;;23.50;35.60;;;;;;5106556;28;19972;-65
2022/04/30 03:54:53;;;;;;;;;;;23.50;35.60;;;;;;5088376;28;19924;-64
2022/04/30 03:57:20;;;;;;;;;;;23.50;35.60;;;;;;5105792;28;19923;-64
2022/04/30 03:59:47;;;;;;;;;;;23.50;35.60;;;;;;5105931;28;20356;-65
2022/04/30 04:02:14;;;;;;;;;;;23.50;35.60;;;;;;5105885;28;19924;-65
2022/04/30 04:04:41;;;;;;;;;;;23.50;35.60;;;;;;5106329;28;19927;-64
2022/04/30 04:07:08;;;;;;;;;;;23.50;35.60;;;;;;5106192;28;19939;-64
2022/04/30 04:09:35;;;;;;;;;;;23.50;35.60;;;;;;5105966;28;20443;-64
2022/04/30 04:12:02;;;;;;;;;;;23.50;35.50;;;;;;5105620;28;20363;-64
2022/04/30 04:20:04;;;;;;;;;;;23.50;35.50;;;;;;5106255;28;19976;-64
2022/04/30 04:22:31;;;;;;;;;;;23.50;36.10;;;;;;5106233;28;20260;-65
2022/04/30 04:27:45;;;;;;;;;;;23.60;35.70;;;;;;5106243;28;20214;-65
2022/04/30 04:30:12;;;;;;;;;;;23.60;35.60;;;;;;5107560;28;19967;-65
2022/04/30 04:32:39;;;;;;;;;;;23.60;35.50;;;;;;5110224;28;19924;-64
2022/04/30 04:35:06;;;;;;;;;;;23.60;35.50;;;;;;5109928;28;19969;-64
2022/04/30 04:37:33;;;;;;;;;;;23.60;35.50;;;;;;5110204;28;19974;-64
2022/04/30 04:40:00;;;;;;;;;;;23.60;35.50;;;;;;5109644;28;19969;-64
2022/04/30 04:42:27;;;;;;;;;;;23.60;35.50;;;;;;5109975;28;19931;-66
2022/04/30 04:44:54;;;;;;;;;;;23.60;35.50;;;;;;5110123;28;20368;-64
2022/04/30 04:47:21;;;;;;;;;;;23.60;35.40;;;;;;5109635;28;19977;-65
2022/04/30 04:49:48;;;;;;;;;;;23.60;35.40;;;;;;5105416;28;20124;-64
2022/04/30 04:52:15;;;;;;;;;;;23.60;35.30;;;;;;5109852;28;19947;-64
2022/04/30 04:54:42;;;;;;;;;;;23.60;35.20;;;;;;5109804;28;20513;-65
2022/04/30 04:57:10;;;;;;;;;;;23.70;35.30;;;;;;5109531;28;20264;-64
2022/04/30 04:59:37;;;;;;;;;;;23.70;35.30;;;;;;5109692;28;19996;-65
2022/04/30 05:02:04;;;;;;;;;;;23.80;35.20;;;;;;5109680;28;19967;-65
2022/04/30 05:04:32;;;;;;;;;;;23.80;35.10;;;;;;5109028;28;19924;-65
2022/04/30 05:06:59;;;;;;;;;;;23.80;35.00;;;;;;5091364;28;19959;-64
2022/04/30 05:09:26;;;;;;;;;;;23.90;34.80;;;;;;5109945;28;20380;-65
2022/04/30 05:11:54;;;;;;;;;;;23.90;34.60;;;;;;5109172;28;19963;-64
2022/04/30 05:14:21;;;;;;;;;;;23.90;34.50;;;;;;5109284;28;19984;-66
2022/04/30 05:16:48;;;;;;;;;;;24.00;34.50;;;;;;5109327;28;20571;-64
2022/04/30 05:19:15;;;;;;;;;;;24.00;34.30;;;;;;5108761;28;19963;-64
2022/04/30 05:21:42;;;;;;;;;;;24.00;34.30;;;;;;5086473;28;19927;-65
2022/04/30 05:24:09;;;;;;;;;;;24.10;34.20;;;;;;5108820;28;19924;-64
2022/04/30 05:26:36;;;;;;;;;;;24.10;34.10;;;;;;5109189;28;19968;-66
2022/04/30 05:29:03;;;;;;;;;;;24.10;34.10;;;;;;5108681;28;20411;-65
2022/04/30 05:31:30;;;;;;;;;;;24.10;34.00;;;;;;5108988;28;19963;-65
2022/04/30 05:33:57;;;;;;;;;;;24.10;34.00;;;;;;5108974;28;19971;-65
2022/04/30 05:36:24;;;;;;;;;;;24.10;33.90;;;;;;5109007;28;20005;-65
2022/04/30 05:38:51;;;;;;;;;;;24.20;33.90;;;;;;5108553;28;19924;-64
2022/04/30 05:41:18;;;;;;;;;;;24.20;33.80;;;;;;5108711;28;20056;-64
2022/04/30 05:43:51;;;;;;;;;;;24.20;33.80;;;;;;5108484;28;19924;-65
2022/04/30 05:46:18;;;;;;;;;;;24.20;33.70;;;;;;5108861;28;19927;-65
2022/04/30 05:48:45;;;;;;;;;;;24.30;33.70;;;;;;5108481;28;20418;-64
2022/04/30 05:51:12;;;;;;;;;;;24.30;33.60;;;;;;5108908;28;19923;-64
2022/04/30 05:53:39;;;;;;;;;;;24.30;33.60;;;;;;5104077;28;19982;-65
2022/04/30 05:56:06;;;;;;;;;;;24.30;33.50;;;;;;5108551;28;20214;-64
2022/04/30 05:58:33;;;;;;;;;;;24.40;33.60;;;;;;5108902;28;20165;-64
2022/04/30 06:01:01;;;;;;;;;;;24.40;33.50;;;;;;5108069;28;19924;-65
2022/04/30 06:03:29;;;;;;;;;;;24.40;33.40;;;;;;5108353;28;20010;-65
2022/04/30 06:05:56;;;;;;;;;;;24.40;33.40;;;;;;5108781;28;19931;-65
2022/04/30 06:08:23;;;;;;;;;;;24.50;33.40;;;;;;5108425;28;20284;-65
2022/04/30 06:10:50;;;;;;;;;;;24.50;33.90;;;;;;5107998;28;19935;-65
2022/04/30 06:13:17;;;;;;;;;;;24.50;33.30;;;;;;5108393;28;20345;-65
2022/04/30 06:15:44;;;;;;;;;;;24.50;33.30;;;;;;5108330;28;19989;-65
2022/04/30 06:18:11;;;;;;;;;;;24.50;33.20;;;;;;5107730;28;20370;-64
2022/04/30 06:20:38;;;;;;;;;;;24.60;33.10;;;;;;5108325;28;19963;-65
2022/04/30 06:23:06;;;;;;;;;;;24.60;33.00;;;;;;5108625;28;19924;-65
2022/04/30 06:25:34;;;;;;;;;;;24.70;33.00;;;;;;5103505;28;20399;-65
2022/04/30 06:28:02;;;;;;;;;;;24.70;32.90;;;;;;5108437;28;20382;-65
2022/04/30 06:30:29;;;;;;;;;;;24.70;32.80;;;;;;5107704;28;20109;-65
2022/04/30 06:32:56;;;;;;;;;;;24.80;32.80;;;;;;5092668;28;19924;-65
2022/04/30 06:35:23;;;;;;;;;;;24.80;32.70;;;;;;5087560;28;20376;-65
2022/04/30 06:37:50;;;;;;;;;;;24.80;32.50;;;;;;5087025;28;19964;-65
2022/04/30 06:40:17;;;;;;;;;;;24.90;32.50;;;;;;5086772;28;19969;-65
2022/04/30 06:42:47;;;;;;;;;;;24.90;32.40;;;;;;5086983;28;20469;-65
2022/04/30 06:45:14;;;;;;;;;;;24.90;32.30;;;;;;5087744;28;20347;-65
2022/04/30 06:47:41;;;;;;;;;;;25.00;32.30;;;;;;5087926;28;19997;-65
2022/04/30 06:50:09;;;;;;;;;;;25.00;32.20;;;;;;5086736;28;20174;-65
2022/04/30 06:57:07;;;;;;;;;;;25.10;32.20;;;;;;5087378;28;19924;-65
2022/04/30 06:58:10;;;;;;;;;;;25.10;32.10;;;;;;5087398;28;19967;-65
2022/04/30 07:01:28;;;;;;;;;;;25.10;32.10;;;;;;5086083;28;19963;-65
2022/04/30 07:03:26;;;;;;;;;;;25.10;32.00;;;;;;5086757;28;20031;-65
2022/04/30 07:06:03;;;;;;;;;;;25.20;32.00;;;;;;5086786;28;19973;-65
2022/04/30 07:08:31;;;;;;;;;;;25.20;32.00;;;;;;5086498;28;20387;-65
2022/04/30 07:10:58;;;;;;;;;;;25.30;32.00;;;;;;5069071;28;19971;-65
2022/04/30 07:13:26;;;;;;;;;;;25.30;32.00;;;;;;5086546;28;20349;-64
2022/04/30 07:15:53;;;;;;;;;;;25.30;32.00;;;;;;5086315;28;20026;-65
2022/04/30 07:18:20;;;;;;;;;;;25.30;31.90;;;;;;5086629;28;20255;-65
2022/04/30 07:20:47;;;;;;;;;;;25.40;32.00;;;;;;5086404;28;20174;-64
2022/04/30 07:23:14;;;;;;;;;;;25.40;31.90;;;;;;5086342;28;20330;-65
2022/04/30 07:25:41;;;;;;;;;;;25.40;31.80;;;;;;5085919;28;20445;-65
2022/04/30 07:28:08;;;;;;;;;;;25.50;31.90;;;;;;5082278;28;20421;-65
2022/04/30 07:30:35;;;;;;;;;;;25.50;31.80;;;;;;5086660;28;20376;-65
2022/04/30 07:33:02;;;;;;;;;;;25.50;31.70;;;;;;5085947;28;19928;-65
2022/04/30 07:35:29;;;;;;;;;;;25.60;31.70;;;;;;5086725;28;20287;-65
2022/04/30 07:37:56;;;;;;;;;;;25.60;31.70;;;;;;5085925;28;19978;-65
2022/04/30 07:40:23;;;;;;;;;;;25.60;31.60;;;;;;5086222;28;19928;-65
2022/04/30 07:42:50;;;;;;;;;;;25.60;31.60;;;;;;5086376;28;19951;-65
2022/04/30 07:45:17;;;;;;;;;;;25.70;31.60;;;;;;5086183;28;20014;-65
2022/04/30 07:47:44;;;;;;;;;;;25.70;31.50;;;;;;5087117;28;20276;-65
2022/04/30 07:50:10;;;;;;;;;;;25.80;31.50;;;;;;5085016;28;19977;-65
2022/04/30 07:52:37;;;;;;;;;;;25.80;31.40;;;;;;5086387;28;19970;-65
2022/04/30 07:55:05;;;;;;;;;;;25.80;31.30;;;;;;5085578;28;19924;-65
2022/04/30 07:57:32;;;;;;;;;;;25.90;31.30;;;;;;5085565;28;19971;-65
2022/04/30 07:59:59;;;;;;;;;;;25.90;31.30;;;;;;5082265;28;19969;-65
2022/04/30 08:02:26;;;;;;;;;;;25.90;31.20;;;;;;5085779;28;19962;-65
2022/04/30 08:04:54;;;;;;;;;;;26.00;31.20;;;;;;5085527;28;19924;-65
2022/04/30 08:07:25;;;;;;;;;;;26.00;31.10;;;;;;5085666;28;20246;-65
2022/04/30 08:09:52;;;;;;;;;;;26.00;31.00;;;;;;5085745;28;20200;-65
2022/04/30 08:12:19;;;;;;;;;;;26.00;31.00;;;;;;5085707;28;19928;-65
2022/04/30 08:14:47;;;;;;;;;;;26.00;31.00;;;;;;5085350;28;19977;-65
2022/04/30 08:17:16;;;;;;;;;;;26.00;31.00;;;;;;5085341;28;20203;-65
2022/04/30 08:19:43;;;;;;;;;;;26.10;31.00;;;;;;5085476;28;20387;-65
2022/04/30 08:22:10;;;;;;;;;;;26.10;31.00;;;;;;5085160;28;20011;-65
2022/04/30 08:24:41;;;;;;;;;;;26.10;30.90;;;;;;5086049;28;19928;-65
2022/04/30 08:27:09;;;;;;;;;;;26.10;30.90;;;;;;5085269;28;19932;-65
2022/04/30 08:29:36;;;;;;;;;;;26.10;30.80;;;;;;5082329;28;20244;-65
2022/04/30 08:32:03;;;;;;;;;;;26.10;30.90;;;;;;5085091;28;19934;-65
2022/04/30 08:34:31;;;;;;;;;;;26.10;30.90;;;;;;5085630;28;20472;-65
2022/04/30 08:36:58;;;;;;;;;;;26.10;30.80;;;;;;5085008;28;19969;-64
2022/04/30 08:39:25;;;;;;;;;;;26.20;30.90;;;;;;5084757;28;20402;-65
2022/04/30 08:41:52;;;;;;;;;;;26.20;30.80;;;;;;5085306;28;19930;-65
2022/04/30 08:44:19;;;;;;;;;;;26.20;30.80;;;;;;5085485;28;19935;-65
2022/04/30 08:46:46;;;;;;;;;;;26.20;30.90;;;;;;5067659;28;20130;-65
2022/04/30 08:49:13;;;;;;;;;;;26.20;30.90;;;;;;5085590;28;19924;-64
2022/04/30 08:51:40;;;;;;;;;;;26.20;30.80;;;;;;5085307;28;19928;-65
2022/04/30 08:54:07;;;;;;;;;;;26.20;30.90;;;;;;5085539;28;20407;-64
2022/04/30 08:56:36;;;;;;;;;;;26.20;30.80;;;;;;5084848;28;19924;-65
2022/04/30 08:59:05;;;;;;;;;;;26.20;30.90;;;;;;5085284;28;19932;-64
2022/04/30 09:01:44;;;;;;;;;;;26.20;30.90;;;;;;5080188;28;20066;-64
2022/04/30 09:04:11;;;;;;;;;;;26.20;30.80;;;;;;5085113;28;19924;-66
2022/04/30 09:06:49;;;;;;;;;;;26.20;30.80;;;;;;5085173;28;20259;-65
2022/04/30 09:09:27;;;;;;;;;;;26.20;30.80;;;;;;5084666;28;20307;-65
2022/04/30 09:12:05;;;;;;;;;;;26.20;30.80;;;;;;5084904;28;19935;-65
2022/04/30 09:14:32;;;;;;;;;;;26.20;30.80;;;;;;5085227;28;19977;-64
2022/04/30 09:17:09;;;;;;;;;;;26.20;30.80;;;;;;5086055;28;19977;-64
2022/04/30 09:19:47;;;;;;;;;;;26.30;30.90;;;;;;5089191;28;20113;-65
2022/04/30 09:22:15;;;;;;;;;;;26.30;30.90;;;;;;5088562;28;19967;-65
2022/04/30 09:24:49;;;;;;;;;;;26.30;30.80;;;;;;5088787;28;20376;-65
2022/04/30 09:27:44;;;;;;;;;;;26.30;30.80;;;;;;5088122;28;19930;-65
2022/04/30 09:30:17;;;;;;;;;;;26.30;30.70;;;;;;5088860;28;19925;-65
2022/04/30 09:32:44;;;;;;;;;;;26.40;30.80;;;;;;5086952;28;19924;-64
2022/04/30 09:38:05;;;;;;;;;;;26.30;30.70;;;;;;5073823;28;20505;-65
2022/04/30 09:40:32;;;;;;;;;;;26.30;30.70;;;;;;5088501;28;19928;-65
2022/04/30 09:43:01;;;;;;;;;;;26.30;30.70;;;;;;5089101;28;19975;-65
2022/04/30 09:45:32;;;;;;;;;;;26.30;30.70;;;;;;5088165;28;19999;-65
2022/04/30 09:48:01;;;;;;;;;;;26.30;30.70;;;;;;5088373;28;20050;-65
2022/04/30 09:56:06;;;;;;;;;;;26.40;30.80;;;;;;5088470;28;19993;-64
2022/04/30 09:58:39;;;;;;;;;;;26.40;30.70;;;;;;5088290;28;20269;-65
2022/04/30 10:01:08;;;;;;;;;;;26.40;30.70;;;;;;5088403;28;20380;-65
2022/04/30 10:03:35;;;;;;;;;;;26.40;30.70;;;;;;5087346;28;19928;-65
2022/04/30 10:06:04;;;;;;;;;;;26.40;30.70;;;;;;5083316;28;20438;-65
2022/04/30 10:08:33;;;;;;;;;;;26.40;30.70;;;;;;5087772;28;20437;-65
2022/04/30 10:11:20;;;;;;;;;;;26.40;30.60;;;;;;5087631;28;19928;-65
2022/04/30 10:14:06;;;;;;;;;;;26.50;30.70;;;;;;5072532;28;19924;-65
2022/04/30 10:16:34;;;;;;;;;;;26.50;30.60;;;;;;5087640;28;19928;-65
2022/04/30 10:19:15;;;;;;;;;;;26.50;30.60;;;;;;5087739;28;20204;-65
2022/04/30 10:21:42;;;;;;;;;;;26.50;30.60;;;;;;5087608;28;19931;-65
2022/04/30 10:24:12;;;;;;;;;;;26.50;30.50;;;;;;5087654;28;19924;-65
2022/04/30 10:26:58;;;;;;;;;;;26.50;30.50;;;;;;5087542;28;20595;-65
2022/04/30 10:29:25;;;;;;;;;;;26.50;30.40;;;;;;5087191;28;19928;-65
2022/04/30 10:31:51;;;;;;;;;;;26.60;30.50;;;;;;5087626;28;19946;-65
2022/04/30 10:34:27;;;;;;;;;;;26.60;30.50;;;;;;5069124;28;19928;-65
2022/04/30 10:36:55;;;;;;;;;;;26.60;30.50;;;;;;5082948;28;20333;-65
2022/04/30 10:39:22;;;;;;;;;;;26.60;30.50;;;;;;5087203;28;19924;-65
2022/04/30 10:41:50;;;;;;;;;;;26.60;30.40;;;;;;5087152;28;19928;-65
2022/04/30 10:44:26;;;;;;;;;;;26.60;30.30;;;;;;5087132;28;20551;-65
2022/04/30 10:46:53;;;;;;;;;;;26.60;30.30;;;;;;5086871;28;19973;-65
2022/04/30 10:49:20;;;;;;;;;;;26.60;30.30;;;;;;5086729;28;20323;-65
2022/04/30 10:51:53;;;;;;;;;;;26.70;30.30;;;;;;5086733;28;19953;-65
2022/04/30 10:54:20;;;;;;;;;;;26.70;30.30;;;;;;5086956;28;20088;-65
2022/04/30 10:56:57;;;;;;;;;;;26.70;30.30;;;;;;5087205;28;19935;-65
2022/04/30 10:59:26;;;;;;;;;;;26.70;30.20;;;;;;5086674;28;19931;-65
2022/04/30 11:01:53;;;;;;;;;;;26.80;30.20;;;;;;5086853;28;20659;-65
2022/04/30 11:04:21;;;;;;;;;;;26.80;30.10;;;;;;5086598;28;19979;-65
2022/04/30 11:06:50;;;;;;;;;;;26.80;30.10;;;;;;5087137;28;19959;-66
2022/04/30 11:09:17;;;;;;;;;;;26.90;30.00;;;;;;5081735;28;19977;-65
2022/04/30 11:11:45;;;;;;;;;;;26.90;30.00;;;;;;5098171;28;19927;-65
2022/04/30 11:14:13;;;;;;;;;;;27.00;30.00;;;;;;5106797;28;19963;-65
2022/04/30 11:16:42;;;;;;;;;;;27.00;29.90;;;;;;5107224;28;19924;-65
2022/04/30 11:19:11;;;;;;;;;;;27.00;29.80;;;;;;5107099;28;20402;-65
2022/04/30 11:21:39;;;;;;;;;;;27.00;29.70;;;;;;5107357;28;19931;-65
2022/04/30 11:24:08;;;;;;;;;;;27.10;29.60;;;;;;5106235;28;19923;-66
2022/04/30 11:26:35;;;;;;;;;;;27.10;29.60;;;;;;5106459;28;19924;-66
2022/04/30 11:29:06;;;;;;;;;;;27.10;29.50;;;;;;5106772;28;20349;-65
2022/04/30 11:31:33;;;;;;;;;;;27.20;29.50;;;;;;5107176;28;19976;-66
2022/04/30 11:34:08;;;;;;;;;;;27.20;29.40;;;;;;5105977;28;19977;-65
2022/04/30 11:36:39;;;;;;;;;;;27.20;29.40;;;;;;5090192;28;19955;-66
2022/04/30 11:39:06;;;;;;;;;;;27.20;29.40;;;;;;5083745;28;19989;-65
2022/04/30 11:41:40;;;;;;;;;;;27.20;29.30;;;;;;5083570;28;19958;-65
2022/04/30 11:44:08;;;;;;;;;;;27.20;29.30;;;;;;5086525;28;19924;-65
2022/04/30 11:46:36;;;;;;;;;;;27.20;29.20;;;;;;5085843;28;19928;-66
2022/04/30 11:49:09;;;;;;;;;;;27.30;29.30;;;;;;5085767;28;19932;-66
2022/04/30 11:51:56;;;;;;;;;;;27.30;29.20;;;;;;5086224;28;19930;-65
2022/04/30 11:54:24;;;;;;;;;;;27.30;29.20;;;;;;5086085;28;20007;-65
2022/04/30 11:56:52;;;;;;;;;;;27.20;29.10;;;;;;5086360;28;19931;-65
2022/04/30 11:59:34;;;;;;;;;;;27.30;29.10;;;;;;5084945;28;20390;-65
2022/04/30 12:02:03;;;;;;;;;;;27.30;29.20;;;;;;5086092;28;19925;-66
2022/04/30 12:04:31;;;;;;;;;;;27.30;29.20;;;;;;5085806;28;19924;-65
2022/04/30 12:06:59;;;;;;;;;;;27.20;29.10;;;;;;5086621;28;20104;-65
2022/04/30 12:09:31;;;;;;;;;;;27.20;29.00;;;;;;5085943;28;20449;-65
2022/04/30 12:11:58;;;;;;;;;;;27.20;29.00;;;;;;5081035;28;19970;-65
2022/04/30 12:14:26;;;;;;;;;;;27.20;29.10;;;;;;5067518;28;20436;-65
2022/04/30 12:16:54;;;;;;;;;;;27.30;29.10;;;;;;5086011;28;19928;-65
2022/04/30 12:25:06;;;;;;;;;;;27.30;29.10;;;;;;5085527;28;19928;-65
2022/04/30 12:27:33;;;;;;;;;;;27.30;29.10;;;;;;5086169;28;19982;-65
2022/04/30 12:30:17;;;;;;;;;;;27.30;29.10;;;;;;5085537;28;19977;-65
2022/04/30 12:32:51;;;;;;;;;;;27.30;29.10;;;;;;5085559;28;20019;-67
2022/04/30 12:35:26;;;;;;;;;;;27.30;29.10;;;;;;5085493;28;20341;-65
2022/04/30 12:38:08;;;;;;;;;;;27.30;29.10;;;;;;5074609;28;19966;-65
2022/04/30 12:40:36;;;;;;;;;;;27.30;29.10;;;;;;5065280;28;19924;-65
2022/04/30 12:43:04;;;;;;;;;;;27.30;29.10;;;;;;5060769;28;20399;-65
2022/04/30 12:45:34;;;;;;;;;;;27.30;29.10;;;;;;5065574;28;19925;-65
2022/04/30 12:48:01;;;;;;;;;;;27.30;29.10;;;;;;5064501;28;19982;-65
2022/04/30 12:50:29;;;;;;;;;;;27.30;29.10;;;;;;5065499;28;20330;-66
2022/04/30 12:52:56;;;;;;;;;;;27.30;29.20;;;;;;5069340;28;19978;-65
2022/04/30 12:55:23;;;;;;;;;;;27.30;29.20;;;;;;5069071;28;19925;-65
2022/04/30 12:57:50;;;;;;;;;;;27.30;29.20;;;;;;5069380;28;19954;-66
2022/04/30 13:00:17;;;;;;;;;;;27.30;29.30;;;;;;5068621;28;19924;-65
2022/04/30 13:02:45;;;;;;;;;;;27.30;29.30;;;;;;5069329;28;19924;-65
2022/04/30 13:05:13;;;;;;;;;;;27.30;29.30;;;;;;5068150;28;19932;-65
2022/04/30 13:07:41;;;;;;;;;;;27.20;29.30;;;;;;5068939;28;19963;-65
2022/04/30 13:15:44;;;;;;;;;;;27.20;29.40;;;;;;5065678;28;19924;-66
2022/04/30 13:18:12;;;;;;;;;;;27.10;29.40;;;;;;5068731;28;19928;-65
2022/04/30 13:20:39;;;;;;;;;;;27.10;29.50;;;;;;5070058;28;19925;-65
2022/04/30 13:23:06;;;;;;;;;;;27.10;29.50;;;;;;5070197;28;19929;-65
2022/04/30 13:25:33;;;;;;;;;;;27.10;29.50;;;;;;5069326;28;19972;-65
2022/04/30 13:28:00;;;;;;;;;;;27.10;29.50;;;;;;5070023;28;19928;-65
2022/04/30 13:30:29;;;;;;;;;;;27.10;29.50;;;;;;5069344;28;19968;-66
2022/04/30 13:32:56;;;;;;;;;;;27.20;29.60;;;;;;5069829;28;19969;-66
2022/04/30 13:35:23;;;;;;;;;;;27.20;29.50;;;;;;5069180;28;20434;-65
2022/04/30 13:37:51;;;;;;;;;;;27.20;29.50;;;;;;5068963;28;19928;-65
2022/04/30 13:40:18;;;;;;;;;;;27.20;29.60;;;;;;5069743;28;20384;-65
2022/04/30 13:42:46;;;;;;;;;;;27.20;29.60;;;;;;5069633;28;19924;-65
2022/04/30 13:45:13;;;;;;;;;;;27.20;29.70;;;;;;5069409;28;19925;-65
2022/04/30 13:47:41;;;;;;;;;;;27.10;29.70;;;;;;5069060;28;20427;-65
2022/04/30 13:50:08;;;;;;;;;;;27.10;29.70;;;;;;5064526;28;19928;-66
2022/04/30 13:52:36;;;;;;;;;;;27.10;29.80;;;;;;5069421;28;20434;-65
2022/04/30 13:55:04;;;;;;;;;;;27.10;29.80;;;;;;5068354;28;19924;-65
2022/04/30 13:57:31;;;;;;;;;;;27.00;29.80;;;;;;5069320;28;19951;-65
2022/04/30 13:59:58;;;;;;;;;;;27.00;29.90;;;;;;5069175;28;19954;-65
2022/04/30 14:02:25;;;;;;;;;;;27.00;29.90;;;;;;5068401;28;19946;-65
2022/04/30 14:04:52;;;;;;;;;;;27.00;29.90;;;;;;5069644;28;20291;-65
2022/04/30 14:07:19;;;;;;;;;;;27.00;30.00;;;;;;5068679;28;20311;-65
2022/04/30 14:09:46;;;;;;;;;;;27.00;30.00;;;;;;5069261;28;20395;-65
2022/04/30 14:12:33;;;;;;;;;;;27.00;30.00;;;;;;5068352;28;20011;-65
2022/04/30 14:15:00;;;;;;;;;;;27.00;30.00;;;;;;5069794;28;20334;-65
2022/04/30 14:20:17;;;;;;;;;;;27.00;30.00;;;;;;5068673;28;19968;-65
2022/04/30 14:22:47;;;;;;;;;;;27.00;30.00;;;;;;5064317;28;19970;-65
2022/04/30 14:25:14;;;;;;;;;;;27.00;30.00;;;;;;5068066;28;20404;-65
2022/04/30 14:27:42;;;;;;;;;;;27.00;30.00;;;;;;5068377;28;19983;-65
2022/04/30 14:30:12;;;;;;;;;;;27.00;30.00;;;;;;5068752;28;19952;-65
2022/04/30 14:32:41;;;;;;;;;;;27.00;30.50;;;;;;5068558;28;19924;-65
2022/04/30 14:35:09;;;;;;;;;;;27.00;30.00;;;;;;5068703;28;19925;-65
2022/04/30 14:37:36;;;;;;;;;;;27.00;30.00;;;;;;5069570;28;20608;-65
2022/04/30 14:40:03;;;;;;;;;;;27.10;30.00;;;;;;5088765;28;19979;-65
2022/04/30 14:42:31;;;;;;;;;;;27.10;30.00;;;;;;5088149;28;20094;-65
2022/04/30 14:44:58;;;;;;;;;;;27.10;29.90;;;;;;5088757;28;19993;-65
2022/04/30 14:47:25;;;;;;;;;;;27.10;29.90;;;;;;5088345;28;19928;-66
2022/04/30 14:50:00;;;;;;;;;;;27.10;29.90;;;;;;5088197;28;20380;-65
2022/04/30 14:52:27;;;;;;;;;;;27.10;29.90;;;;;;5088089;28;20015;-65
2022/04/30 14:54:56;;;;;;;;;;;27.10;29.90;;;;;;5083758;28;19982;-65
2022/04/30 14:57:28;;;;;;;;;;;27.10;29.90;;;;;;5088404;28;19932;-65
2022/04/30 14:59:55;;;;;;;;;;;27.10;29.90;;;;;;5088326;28;20338;-64
2022/04/30 15:02:22;;;;;;;;;;;27.10;29.90;;;;;;5087877;28;20007;-65
2022/04/30 15:04:49;;;;;;;;;;;27.10;30.00;;;;;;5088305;28;19924;-65
2022/04/30 15:07:16;;;;;;;;;;;27.10;29.90;;;;;;5087437;28;19928;-65
2022/04/30 15:09:43;;;;;;;;;;;27.10;29.90;;;;;;5088587;28;19931;-65